createdAt,value
2022-08-16T00:01:23.704Z,19.42
2022-08-16T00:03:53.173Z,19.34
2022-08-16T00:06:21.384Z,19.26
2022-08-16T00:08:52.434Z,19.22
2022-08-16T00:11:22.554Z,19.11
2022-08-16T00:13:53.507Z,19.06
2022-08-16T00:17:00.493Z,19.06
2022-08-16T00:19:13.736Z,19.07
2022-08-16T00:21:43.070Z,18.98
2022-08-16T00:24:12.133Z,18.89
2022-08-16T00:26:44.285Z,18.81
2022-08-16T00:29:16.253Z,18.74
2022-08-16T00:31:59.258Z,18.69
2022-08-16T00:34:44.637Z,18.70
2022-08-16T00:37:20.440Z,18.69
2022-08-16T00:39:58.160Z,18.71
2022-08-16T00:42:32.057Z,18.73
2022-08-16T00:45:08.712Z,18.68
2022-08-16T00:47:49.584Z,18.65
2022-08-16T00:50:20.099Z,18.59
2022-08-16T00:52:50.816Z,18.50
2022-08-16T00:55:21.871Z,18.42
2022-08-16T00:58:00.077Z,18.34
2022-08-16T01:00:30.327Z,18.34
2022-08-16T01:03:02.047Z,18.32
2022-08-16T01:05:32.949Z,18.24
2022-08-16T01:08:02.834Z,18.15
2022-08-16T01:10:51.284Z,18.09
2022-08-16T01:13:24.130Z,18.07
2022-08-16T01:15:57.780Z,18.03
2022-08-16T01:18:40.377Z,18.02
2022-08-16T01:21:22.786Z,17.99
2022-08-16T01:24:02.240Z,17.88
2022-08-16T01:26:35.530Z,17.80
2022-08-16T01:29:09.743Z,17.73
2022-08-16T01:31:42.473Z,17.67
2022-08-16T01:34:25.049Z,17.67
2022-08-16T01:37:00.336Z,17.63
2022-08-16T01:39:35.550Z,17.61
2022-08-16T01:42:12.196Z,17.59
2022-08-16T01:44:43.388Z,17.50
2022-08-16T01:47:11.507Z,17.30
2022-08-16T01:49:45.530Z,17.09
2022-08-16T01:52:30.688Z,16.96
2022-08-16T01:55:14.450Z,16.99
2022-08-16T01:57:53.214Z,17.01
2022-08-16T02:00:29.133Z,16.95
2022-08-16T02:03:00.166Z,16.89
2022-08-16T02:05:30.692Z,16.85
2022-08-16T02:08:01.127Z,16.84
2022-08-16T02:10:33.954Z,16.73
2022-08-16T02:13:03.632Z,16.74
2022-08-16T02:15:37.882Z,16.71
2022-08-16T02:18:12.513Z,16.76
2022-08-16T02:20:45.383Z,16.78
2022-08-16T02:23:17.243Z,16.72
2022-08-16T02:25:52.334Z,16.76
2022-08-16T02:28:24.708Z,16.81
2022-08-16T02:30:54.275Z,16.82
2022-08-16T02:33:24.844Z,16.83
2022-08-16T02:36:47.567Z,16.89
2022-08-16T02:39:05.309Z,16.90
2022-08-16T02:41:39.256Z,16.95
2022-08-16T02:44:09.068Z,16.93
2022-08-16T02:46:38.153Z,16.92
2022-08-16T02:49:07.712Z,16.94
2022-08-16T02:51:38.484Z,16.95
2022-08-16T02:54:09.798Z,16.96
2022-08-16T02:56:39.837Z,16.95
2022-08-16T02:59:11.400Z,16.93
2022-08-16T03:01:41.680Z,16.93
2022-08-16T03:04:39.726Z,16.87
2022-08-16T03:07:15.904Z,16.93
2022-08-16T03:09:55.450Z,16.92
2022-08-16T03:12:30.246Z,16.83
2022-08-16T03:14:59.529Z,16.76
2022-08-16T03:17:32.403Z,16.71
2022-08-16T03:20:03.285Z,16.68
2022-08-16T03:22:38.363Z,16.70
2022-08-16T03:25:17.547Z,16.73
2022-08-16T03:28:03.627Z,16.70
2022-08-16T03:30:37.390Z,16.69
2022-08-16T03:33:08.165Z,16.63
2022-08-16T03:35:44.774Z,16.56
2022-08-16T03:38:34.537Z,16.53
2022-08-16T03:41:14.462Z,16.51
2022-08-16T03:43:56.338Z,16.45
2022-08-16T03:46:48.240Z,16.44
2022-08-16T03:49:20.049Z,16.44
2022-08-16T03:51:53.071Z,16.44
2022-08-16T03:54:24.983Z,16.38
2022-08-16T03:56:58.764Z,16.28
2022-08-16T03:59:32.466Z,16.24
2022-08-16T04:02:22.064Z,16.19
2022-08-16T04:04:53.925Z,16.12
2022-08-16T04:07:24.759Z,16.07
2022-08-16T04:09:52.954Z,16.02
2022-08-16T04:12:54.403Z,16.00
2022-08-16T04:15:16.898Z,15.89
2022-08-16T04:17:55.864Z,15.86
2022-08-16T04:20:33.722Z,15.83
2022-08-16T04:23:08.422Z,15.85
2022-08-16T04:25:41.394Z,15.80
2022-08-16T04:28:52.389Z,15.70
2022-08-16T04:31:00.994Z,15.70
2022-08-16T04:33:30.460Z,15.68
2022-08-16T04:36:03.234Z,15.64
2022-08-16T04:38:34.084Z,15.69
2022-08-16T04:41:02.959Z,15.71
2022-08-16T04:43:38.160Z,15.72
2022-08-16T04:46:30.726Z,15.75
2022-08-16T04:49:08.020Z,15.72
2022-08-16T04:51:36.672Z,15.73
2022-08-16T04:54:07.314Z,15.70
2022-08-16T04:56:36.333Z,15.66
2022-08-16T04:59:14.335Z,15.79
2022-08-16T05:01:56.093Z,15.82
2022-08-16T05:04:30.091Z,15.86
2022-08-16T05:07:00.515Z,15.89
2022-08-16T05:09:51.202Z,15.92
2022-08-16T05:12:30.316Z,15.96
2022-08-16T05:15:02.357Z,16.06
2022-08-16T05:17:33.836Z,16.16
2022-08-16T05:20:35.594Z,16.21
2022-08-16T05:22:59.560Z,16.26
2022-08-16T05:25:36.415Z,16.37
2022-08-16T05:28:10.632Z,16.49
2022-08-16T05:30:43.330Z,16.60
2022-08-16T05:33:21.171Z,16.73
2022-08-16T05:35:54.692Z,16.82
2022-08-16T05:38:39.359Z,16.94
2022-08-16T05:41:13.861Z,17.04
2022-08-16T05:43:47.469Z,17.18
2022-08-16T05:46:34.847Z,17.32
2022-08-16T05:49:22.558Z,17.49
2022-08-16T05:51:57.335Z,17.65
2022-08-16T05:54:26.163Z,17.79
2022-08-16T05:56:59.939Z,17.89
2022-08-16T05:59:28.315Z,17.99
2022-08-16T06:01:57.781Z,18.14
2022-08-16T06:04:37.590Z,18.36
2022-08-16T06:07:24.837Z,18.54
2022-08-16T06:10:32.522Z,18.67
2022-08-16T06:13:05.278Z,18.82
2022-08-16T06:15:35.171Z,18.97
2022-08-16T06:18:04.813Z,19.15
2022-08-16T06:20:35.521Z,19.35
2022-08-16T06:23:26.550Z,19.56
2022-08-16T06:26:00.951Z,19.75
2022-08-16T06:28:34.888Z,19.93
2022-08-16T06:31:05.185Z,20.02
2022-08-16T06:33:41.305Z,20.21
2022-08-16T06:36:13.963Z,20.42
2022-08-16T06:38:56.144Z,20.43
2022-08-16T06:41:39.823Z,20.62
2022-08-16T06:44:24.373Z,20.75
2022-08-16T06:46:57.051Z,20.97
2022-08-16T06:49:24.976Z,21.17
2022-08-16T06:51:54.502Z,21.33
2022-08-16T06:54:34.266Z,21.47
2022-08-16T06:57:02.787Z,21.57
2022-08-16T06:59:32.258Z,21.75
2022-08-16T07:02:33.349Z,21.85
2022-08-16T07:05:03.465Z,21.88
2022-08-16T07:07:50.844Z,21.98
2022-08-16T07:10:25.854Z,22.06
2022-08-16T07:13:03.853Z,22.18
2022-08-16T07:15:50.129Z,22.27
2022-08-16T07:18:24.886Z,22.37
2022-08-16T07:20:54.502Z,22.50
2022-08-16T07:23:38.936Z,22.56
2022-08-16T07:26:24.845Z,22.73
2022-08-16T07:28:57.248Z,22.93
2022-08-16T07:31:25.018Z,22.99
2022-08-16T07:34:11.084Z,23.13
2022-08-16T07:36:41.202Z,23.27
2022-08-16T07:39:15.949Z,23.36
2022-08-16T07:41:45.645Z,23.43
2022-08-16T07:44:16.771Z,23.52
2022-08-16T07:46:45.951Z,23.56
2022-08-16T07:49:22.363Z,23.78
2022-08-16T07:51:56.001Z,23.96
2022-08-16T07:54:39.107Z,24.09
2022-08-16T07:57:11.704Z,24.23
2022-08-16T07:59:46.463Z,23.94
2022-08-16T08:02:20.477Z,24.16
2022-08-16T08:04:57.645Z,24.47
2022-08-16T08:07:28.327Z,24.59
2022-08-16T08:09:59.234Z,24.88
2022-08-16T08:12:32.335Z,24.93
2022-08-16T08:15:05.863Z,25.12
2022-08-16T08:17:43.036Z,25.34
2022-08-16T08:20:20.652Z,25.62
2022-08-16T08:23:00.522Z,25.83
2022-08-16T08:25:53.413Z,26.01
2022-08-16T08:28:20.531Z,26.27
2022-08-16T08:31:01.095Z,26.20
2022-08-16T08:33:31.395Z,26.53
2022-08-16T08:36:01.385Z,26.64
2022-08-16T08:38:44.291Z,26.99
2022-08-16T08:41:18.869Z,27.11
2022-08-16T08:43:51.492Z,26.96
2022-08-16T08:46:22.001Z,27.24
2022-08-16T08:48:59.417Z,27.36
2022-08-16T08:51:35.595Z,27.54
2022-08-16T08:54:09.749Z,27.53
2022-08-16T08:56:45.882Z,27.75
2022-08-16T08:59:29.435Z,27.99
2022-08-16T09:01:58.704Z,28.20
2022-08-16T09:04:31.688Z,28.35
2022-08-16T09:07:01.718Z,28.61
2022-08-16T09:09:33.777Z,28.90
2022-08-16T09:12:07.301Z,29.26
2022-08-16T09:14:52.581Z,29.21
2022-08-16T09:17:49.163Z,29.44
2022-08-16T09:20:16.596Z,29.72
2022-08-16T09:22:52.390Z,29.66
2022-08-16T09:25:33.698Z,29.65
2022-08-16T09:28:09.417Z,29.53
2022-08-16T09:30:45.147Z,29.82
2022-08-16T09:33:19.632Z,30.16
2022-08-16T09:35:53.566Z,30.30
2022-08-16T09:38:31.922Z,30.36
2022-08-16T09:41:02.144Z,30.57
2022-08-16T09:43:59.249Z,30.96
2022-08-16T09:46:44.714Z,31.33
2022-08-16T09:49:09.083Z,31.17
2022-08-16T09:51:40.067Z,31.04
2022-08-16T09:54:09.620Z,31.00
2022-08-16T09:56:52.791Z,31.22
2022-08-16T09:59:25.149Z,31.60
2022-08-16T10:01:54.591Z,31.30
2022-08-16T10:04:31.699Z,30.05
2022-08-16T10:07:15.017Z,29.83
2022-08-16T10:09:55.355Z,29.33
2022-08-16T10:12:43.373Z,29.91
2022-08-16T10:15:17.010Z,30.67
2022-08-16T10:18:01.562Z,31.20
2022-08-16T10:20:34.617Z,31.89
2022-08-16T10:23:07.119Z,32.31
2022-08-16T10:27:19.135Z,32.26
2022-08-16T10:28:29.357Z,31.65
2022-08-16T10:31:00.922Z,31.86
2022-08-16T10:33:34.024Z,31.94
2022-08-16T10:36:04.880Z,32.18
2022-08-16T10:38:36.589Z,31.49
2022-08-16T10:41:06.951Z,31.33
2022-08-16T10:43:35.452Z,31.94
2022-08-16T10:46:39.515Z,32.09
2022-08-16T10:48:54.952Z,31.67
2022-08-16T10:51:33.732Z,32.19
2022-08-16T10:54:29.143Z,32.43
2022-08-16T10:56:58.091Z,32.37
2022-08-16T10:59:38.928Z,32.40
2022-08-16T11:03:37.599Z,32.53
2022-08-16T11:05:08.933Z,32.73
2022-08-16T11:07:53.614Z,33.15
2022-08-16T11:19:05.575Z,30.77
2022-08-16T11:22:38.771Z,30.98
2022-08-16T11:24:41.633Z,29.37
2022-08-16T11:27:20.502Z,29.98
2022-08-16T11:29:52.237Z,30.18
2022-08-16T11:32:30.100Z,30.47
2022-08-16T11:35:13.854Z,29.57
2022-08-16T11:40:37.790Z,29.63
2022-08-16T11:43:07.647Z,29.54
2022-08-16T11:45:40.574Z,29.99
2022-08-16T11:48:10.891Z,30.05
2022-08-16T11:50:40.414Z,30.42
2022-08-16T11:53:08.537Z,30.59
2022-08-16T11:55:38.468Z,30.02
2022-08-16T11:58:11.050Z,28.90
2022-08-16T12:00:50.322Z,29.51
2022-08-16T12:03:19.148Z,29.48
2022-08-16T12:05:52.088Z,28.93
2022-08-16T12:08:26.022Z,28.36
2022-08-16T12:10:59.381Z,28.40
2022-08-16T12:13:29.926Z,28.64
2022-08-16T12:15:57.655Z,29.06
2022-08-16T12:18:26.304Z,29.50
2022-08-16T12:20:55.512Z,29.89
2022-08-16T12:23:26.123Z,29.94
2022-08-16T12:25:54.128Z,29.86
2022-08-16T12:28:36.931Z,30.13
2022-08-16T12:31:10.388Z,29.70
2022-08-16T12:33:44.763Z,29.91
2022-08-16T12:36:16.965Z,30.24
2022-08-16T12:38:48.345Z,30.16
2022-08-16T12:41:24.499Z,30.00
2022-08-16T12:43:57.133Z,30.15
2022-08-16T12:46:30.900Z,30.14
2022-08-16T12:48:58.327Z,30.16
2022-08-16T12:51:54.322Z,30.21
2022-08-16T12:54:19.875Z,30.20
2022-08-16T12:56:50.502Z,30.13
2022-08-16T12:59:20.822Z,29.83
2022-08-16T13:01:58.330Z,30.08
2022-08-16T13:04:27.961Z,30.19
2022-08-16T13:07:04.999Z,30.23
2022-08-16T13:09:42.836Z,30.24
2022-08-16T13:12:19.729Z,29.56
2022-08-16T13:14:50.098Z,29.33
2022-08-16T13:17:22.014Z,29.50
2022-08-16T13:20:07.346Z,29.03
2022-08-16T13:22:38.167Z,29.38
2022-08-16T13:25:07.405Z,29.58
2022-08-16T13:28:02.244Z,29.57
2022-08-16T13:30:37.120Z,29.84
2022-08-16T13:33:10.716Z,29.87
2022-08-16T13:35:42.955Z,30.05
2022-08-16T13:38:21.694Z,30.06
2022-08-16T13:40:56.152Z,30.27
2022-08-16T13:43:26.674Z,30.41
2022-08-16T13:45:55.894Z,30.11
2022-08-16T13:48:25.542Z,30.20
2022-08-16T13:50:54.753Z,30.22
2022-08-16T13:53:25.903Z,30.06
2022-08-16T13:55:58.636Z,30.04
2022-08-16T13:58:36.979Z,30.14
2022-08-16T14:01:17.101Z,30.17
2022-08-16T14:03:45.145Z,30.19
2022-08-16T14:06:14.798Z,30.21
2022-08-16T14:08:44.922Z,30.30
2022-08-16T14:11:27.811Z,30.49
2022-08-16T14:13:57.382Z,30.42
2022-08-16T14:16:33.901Z,30.38
2022-08-16T14:19:02.685Z,29.98
2022-08-16T14:21:35.188Z,29.84
2022-08-16T14:24:16.739Z,29.93
2022-08-16T14:26:50.877Z,29.65
2022-08-16T14:29:20.738Z,29.70
2022-08-16T14:31:49.567Z,29.98
2022-08-16T14:34:21.424Z,30.22
2022-08-16T14:36:54.014Z,30.22
2022-08-16T14:39:23.205Z,30.90
2022-08-16T14:41:53.580Z,31.57
2022-08-16T14:44:24.117Z,31.70
2022-08-16T14:46:55.082Z,31.72
2022-08-16T14:49:23.473Z,31.49
2022-08-16T14:51:52.514Z,31.21
2022-08-16T14:54:21.704Z,31.08
2022-08-16T14:56:54.928Z,30.52
2022-08-16T14:59:23.368Z,30.47
2022-08-16T15:01:58.780Z,30.71
2022-08-16T15:04:39.266Z,30.71
2022-08-16T15:07:12.591Z,30.97
2022-08-16T15:09:44.648Z,31.17
2022-08-16T15:12:34.050Z,31.21
2022-08-16T15:15:12.980Z,31.18
2022-08-16T15:17:53.909Z,31.34
2022-08-16T15:20:23.549Z,31.58
2022-08-16T15:22:55.487Z,31.78
2022-08-16T15:25:29.069Z,31.76
2022-08-16T15:27:59.238Z,31.99
2022-08-16T15:30:57.126Z,32.31
2022-08-16T15:33:18.233Z,32.80
2022-08-16T15:35:50.131Z,33.13
2022-08-16T15:38:57.785Z,33.08
2022-08-16T15:41:07.336Z,33.22
2022-08-16T15:43:39.993Z,33.64
2022-08-16T15:46:35.331Z,34.07
2022-08-16T15:49:12.411Z,34.47
2022-08-16T15:51:43.585Z,34.85
2022-08-16T15:54:21.472Z,35.32
2022-08-16T15:57:11.387Z,35.78
2022-08-16T15:59:48.956Z,36.16
2022-08-16T16:02:30.344Z,36.38
2022-08-16T16:05:01.686Z,36.45
2022-08-16T16:07:33.385Z,36.11
2022-08-16T16:10:02.760Z,35.12
2022-08-16T16:12:54.005Z,33.72
2022-08-16T16:15:22.908Z,33.13
2022-08-16T16:17:53.111Z,32.22
2022-08-16T16:20:22.856Z,32.71
2022-08-16T16:22:57.626Z,32.73
2022-08-16T16:25:26.309Z,32.90
2022-08-16T16:27:55.298Z,33.02
2022-08-16T16:30:33.395Z,32.85
2022-08-16T16:33:15.578Z,32.30
2022-08-16T16:35:55.450Z,32.01
2022-08-16T16:38:28.790Z,31.73
2022-08-16T16:40:57.725Z,31.53
2022-08-16T16:43:31.998Z,31.33
2022-08-16T16:46:05.835Z,31.17
2022-08-16T16:48:52.688Z,31.01
2022-08-16T16:51:22.544Z,30.91
2022-08-16T16:53:56.301Z,30.80
2022-08-16T16:56:31.250Z,30.73
2022-08-16T16:59:06.613Z,30.57
2022-08-16T17:01:59.659Z,30.38
2022-08-16T17:04:31.467Z,30.03
2022-08-16T17:07:01.594Z,29.95
2022-08-16T17:09:29.840Z,29.73
2022-08-16T17:11:58.394Z,29.71
2022-08-16T17:14:33.593Z,29.73
2022-08-16T17:17:06.787Z,29.42
2022-08-16T17:19:40.936Z,29.53
2022-08-16T17:22:14.079Z,29.55
2022-08-16T17:24:45.601Z,29.56
2022-08-16T17:27:19.402Z,29.48
2022-08-16T17:30:15.104Z,29.39
2022-08-16T17:32:50.622Z,29.29
2022-08-16T17:35:34.297Z,29.20
2022-08-16T17:38:06.291Z,29.05
2022-08-16T17:40:47.573Z,28.91
2022-08-16T17:43:27.448Z,28.80
2022-08-16T17:45:55.764Z,28.69
2022-08-16T17:48:25.144Z,28.61
2022-08-16T17:50:54.719Z,28.53
2022-08-16T17:53:23.263Z,28.43
2022-08-16T17:55:51.967Z,28.31
2022-08-16T17:58:23.339Z,28.21
2022-08-16T18:00:54.184Z,28.09
2022-08-16T18:04:08.028Z,27.98
2022-08-16T18:06:15.667Z,27.85
2022-08-16T18:08:43.983Z,27.68
2022-08-16T18:11:13.432Z,27.56
2022-08-16T18:13:43.056Z,27.43
2022-08-16T18:16:11.443Z,27.30
2022-08-16T18:18:40.457Z,27.18
2022-08-16T18:21:25.944Z,27.03
2022-08-16T18:23:54.026Z,26.98
2022-08-16T18:26:21.700Z,26.84
2022-08-16T18:28:50.678Z,26.63
2022-08-16T18:31:18.442Z,26.41
2022-08-16T18:33:47.595Z,26.23
2022-08-16T18:36:20.549Z,26.10
2022-08-16T18:38:49.928Z,25.98
2022-08-16T18:41:18.389Z,25.87
2022-08-16T18:44:22.375Z,25.73
2022-08-16T18:46:34.983Z,25.62
2022-08-16T18:49:04.615Z,25.53
2022-08-16T18:51:32.267Z,25.44
2022-08-16T18:54:00.259Z,25.38
2022-08-16T18:56:57.015Z,25.28
2022-08-16T18:59:15.878Z,25.21
2022-08-16T19:01:43.614Z,24.82
2022-08-16T19:04:55.992Z,24.74
2022-08-16T19:07:00.874Z,24.45
2022-08-16T19:09:29.035Z,24.35
2022-08-16T19:11:56.670Z,24.19
2022-08-16T19:14:30.321Z,24.00
2022-08-16T19:16:57.961Z,23.84
2022-08-16T19:19:27.557Z,23.77
2022-08-16T19:21:55.250Z,23.72
2022-08-16T19:24:23.571Z,23.71
2022-08-16T19:26:57.233Z,23.77
2022-08-16T19:29:25.351Z,23.71
2022-08-16T19:31:53.016Z,23.67
2022-08-16T19:34:20.944Z,23.62
2022-08-16T19:36:50.286Z,23.56
2022-08-16T19:39:18.483Z,23.51
2022-08-16T19:41:53.443Z,23.45
2022-08-16T19:44:22.174Z,23.39
2022-08-16T19:46:49.852Z,23.31
2022-08-16T19:49:18.145Z,23.22
2022-08-16T19:51:45.804Z,23.01
2022-08-16T19:54:15.712Z,22.66
2022-08-16T19:56:43.352Z,22.50
2022-08-16T19:59:20.337Z,22.33
2022-08-16T20:01:51.877Z,22.22
2022-08-16T20:04:21.491Z,21.93
2022-08-16T20:06:49.292Z,21.92
2022-08-16T20:09:18.467Z,21.91
2022-08-16T20:11:46.326Z,21.79
2022-08-16T20:14:24.840Z,21.75
2022-08-16T20:16:56.564Z,21.71
2022-08-16T20:19:25.555Z,21.69
2022-08-16T20:21:53.292Z,21.61
2022-08-16T20:24:34.018Z,21.57
2022-08-16T20:27:05.985Z,21.51
2022-08-16T20:29:34.939Z,21.49
2022-08-16T20:32:02.637Z,21.47
2022-08-16T20:34:30.780Z,21.44
2022-08-16T20:36:58.580Z,21.43
2022-08-16T20:39:28.096Z,21.41
2022-08-16T20:41:55.877Z,21.36
2022-08-16T20:44:25.270Z,21.35
2022-08-16T20:46:53.891Z,21.33
2022-08-16T20:49:21.606Z,21.34
2022-08-16T20:51:53.738Z,21.32
2022-08-16T20:54:22.825Z,21.36
2022-08-16T20:56:52.763Z,21.40
2022-08-16T20:59:20.558Z,21.39
2022-08-16T21:01:50.302Z,21.38
2022-08-16T21:04:20.399Z,21.38
2022-08-16T21:06:53.829Z,21.32
2022-08-16T21:09:24.827Z,21.25
2022-08-16T21:11:56.285Z,21.17
2022-08-16T21:14:25.129Z,21.09
2022-08-16T21:16:52.787Z,21.00
2022-08-16T21:19:20.658Z,20.87
2022-08-16T21:21:49.842Z,20.68
2022-08-16T21:24:17.686Z,20.55
2022-08-16T21:26:54.020Z,20.29
2022-08-16T21:29:33.679Z,20.01
2022-08-16T21:32:13.266Z,19.80
2022-08-16T21:34:42.049Z,19.87
2022-08-16T21:37:10.697Z,19.82
2022-08-16T21:39:39.989Z,19.76
2022-08-16T21:42:12.674Z,19.71
2022-08-16T21:44:42.738Z,19.57
2022-08-16T21:47:10.424Z,19.53
2022-08-16T21:49:39.286Z,19.51
2022-08-16T21:52:09.423Z,19.52
2022-08-16T21:54:50.857Z,19.48
2022-08-16T21:57:22.486Z,19.48
2022-08-16T21:59:52.739Z,19.48
2022-08-16T22:02:22.758Z,19.47
2022-08-16T22:04:51.543Z,19.51
2022-08-16T22:07:19.271Z,19.52
2022-08-16T22:09:48.554Z,19.50
2022-08-16T22:12:21.491Z,19.48
2022-08-16T22:14:53.408Z,19.20
2022-08-16T22:17:21.440Z,19.22
2022-08-16T22:19:49.087Z,19.26
2022-08-16T22:22:17.428Z,19.28
2022-08-16T22:24:45.222Z,19.18
2022-08-16T22:27:12.892Z,19.12
2022-08-16T22:29:42.135Z,19.08
2022-08-16T22:32:11.915Z,19.10
2022-08-16T22:34:39.602Z,19.10
2022-08-16T22:37:07.658Z,19.13
2022-08-16T22:39:35.371Z,19.08
2022-08-16T22:42:08.560Z,18.92
2022-08-16T22:44:36.913Z,18.89
2022-08-16T22:47:05.359Z,18.90
2022-08-16T22:49:34.388Z,18.77
2022-08-16T22:52:07.244Z,18.61
2022-08-16T22:54:47.841Z,18.43
2022-08-16T22:57:16.676Z,18.34
2022-08-16T22:59:44.360Z,18.30
2022-08-16T23:02:12.695Z,18.20
2022-08-16T23:04:42.359Z,18.16
2022-08-16T23:07:10.396Z,18.22
2022-08-16T23:09:38.150Z,18.25
2022-08-16T23:12:07.234Z,18.33
2022-08-16T23:14:35.128Z,18.27
2022-08-16T23:17:03.155Z,18.30
2022-08-16T23:19:30.896Z,18.28
2022-08-16T23:22:00.701Z,18.09
2022-08-16T23:24:28.647Z,18.06
2022-08-16T23:26:57.136Z,17.96
2022-08-16T23:29:26.469Z,17.93
2022-08-16T23:31:58.612Z,17.90
2022-08-16T23:34:28.264Z,17.90
2022-08-16T23:36:56.951Z,17.95
2022-08-16T23:39:26.217Z,17.96
2022-08-16T23:41:54.430Z,17.87
2022-08-16T23:44:57.520Z,17.81
2022-08-16T23:47:10.264Z,17.59
2022-08-16T23:49:59.494Z,17.63
2022-08-16T23:52:53.209Z,17.50
2022-08-16T23:55:17.144Z,17.51
2022-08-16T23:57:46.417Z,17.51
